createdAt,value
2022-11-21T00:00:19.782Z,100.00
2022-11-21T00:03:06.312Z,100.00
2022-11-21T00:05:34.541Z,100.00
2022-11-21T00:08:04.666Z,100.00
2022-11-21T00:10:31.891Z,100.00
2022-11-21T00:13:01.736Z,100.00
2022-11-21T00:15:29.033Z,100.00
2022-11-21T00:17:56.117Z,100.00
2022-11-21T00:20:23.475Z,100.00
2022-11-21T00:22:53.945Z,100.00
2022-11-21T00:25:21.335Z,100.00
2022-11-21T00:27:48.766Z,100.00
2022-11-21T00:30:16.433Z,100.00
2022-11-21T00:32:43.591Z,100.00
2022-11-21T00:35:10.711Z,100.00
2022-11-21T00:37:37.823Z,100.00
2022-11-21T00:40:07.908Z,100.00
2022-11-21T00:42:37.954Z,100.00
2022-11-21T00:45:05.759Z,100.00
2022-11-21T00:47:35.695Z,100.00
2022-11-21T00:50:02.943Z,100.00
2022-11-21T00:52:30.060Z,100.00
2022-11-21T00:54:57.128Z,100.00
2022-11-21T00:57:25.424Z,100.00
2022-11-21T00:59:52.480Z,100.00
2022-11-21T01:02:19.718Z,100.00
2022-11-21T01:04:46.900Z,100.00
2022-11-21T01:07:14.939Z,100.00
2022-11-21T01:09:42.125Z,100.00
2022-11-21T01:12:09.273Z,100.00
2022-11-21T01:14:36.361Z,100.00
2022-11-21T01:17:03.477Z,100.00
2022-11-21T01:19:32.963Z,100.00
2022-11-21T01:22:00.327Z,100.00
2022-11-21T01:24:27.790Z,100.00
2022-11-21T01:26:55.075Z,100.00
2022-11-21T01:29:22.175Z,100.00
2022-11-21T01:31:49.345Z,100.00
2022-11-21T01:34:17.086Z,100.00
2022-11-21T01:36:44.608Z,100.00
2022-11-21T01:39:12.167Z,100.00
2022-11-21T01:41:44.346Z,100.00
2022-11-21T01:44:44.852Z,100.00
2022-11-21T01:47:12.129Z,100.00
2022-11-21T01:49:41.978Z,100.00
2022-11-21T01:52:30.830Z,100.00
2022-11-21T01:55:10.949Z,100.00
2022-11-21T01:57:48.115Z,100.00
2022-11-21T02:00:23.037Z,100.00
2022-11-21T02:02:59.069Z,100.00
2022-11-21T02:05:30.279Z,100.00
2022-11-21T02:08:02.594Z,100.00
2022-11-21T02:10:29.804Z,100.00
2022-11-21T02:12:58.731Z,100.00
2022-11-21T02:15:29.572Z,100.00
2022-11-21T02:17:56.759Z,100.00
2022-11-21T02:20:28.887Z,100.00
2022-11-21T02:23:30.054Z,100.00
2022-11-21T02:25:59.285Z,100.00
2022-11-21T02:28:26.598Z,100.00
2022-11-21T02:30:53.859Z,100.00
2022-11-21T02:33:20.994Z,100.00
2022-11-21T02:36:04.645Z,100.00
2022-11-21T02:38:38.827Z,100.00
2022-11-21T02:41:05.919Z,100.00
2022-11-21T02:43:42.487Z,100.00
2022-11-21T02:46:09.604Z,100.00
2022-11-21T02:48:38.291Z,100.00
2022-11-21T02:51:05.513Z,100.00
2022-11-21T02:53:32.958Z,100.00
2022-11-21T02:56:03.433Z,100.00
2022-11-21T02:58:34.299Z,100.00
2022-11-21T03:01:02.218Z,100.00
2022-11-21T03:03:29.911Z,100.00
2022-11-21T03:05:57.907Z,100.00
2022-11-21T03:08:25.035Z,100.00
2022-11-21T03:10:52.733Z,100.00
2022-11-21T03:13:19.836Z,100.00
2022-11-21T03:15:46.985Z,100.00
2022-11-21T03:18:17.054Z,100.00
2022-11-21T03:20:44.203Z,100.00
2022-11-21T03:23:11.310Z,100.00
2022-11-21T03:25:38.418Z,100.00
2022-11-21T03:28:05.518Z,100.00
2022-11-21T03:30:32.698Z,100.00
2022-11-21T03:32:59.861Z,100.00
2022-11-21T03:35:27.048Z,100.00
2022-11-21T03:37:54.157Z,100.00
2022-11-21T03:40:21.347Z,100.00
2022-11-21T03:42:48.416Z,100.00
2022-11-21T03:45:15.510Z,100.00
2022-11-21T03:47:42.649Z,100.00
2022-11-21T03:50:10.146Z,100.00
2022-11-21T03:52:37.425Z,100.00
2022-11-21T03:55:04.816Z,100.00
2022-11-21T03:57:31.963Z,100.00
2022-11-21T03:59:59.045Z,100.00
2022-11-21T04:02:26.229Z,100.00
2022-11-21T04:04:53.300Z,100.00
2022-11-21T04:07:23.283Z,100.00
2022-11-21T04:09:50.379Z,100.00
2022-11-21T04:12:17.529Z,100.00
2022-11-21T04:14:44.604Z,100.00
2022-11-21T04:17:11.727Z,100.00
2022-11-21T04:19:38.864Z,100.00
2022-11-21T04:22:05.951Z,100.00
2022-11-21T04:24:33.055Z,100.00
2022-11-21T04:27:01.353Z,100.00
2022-11-21T04:29:28.515Z,100.00
2022-11-21T04:31:55.664Z,100.00
2022-11-21T04:34:23.130Z,100.00
2022-11-21T04:36:54.088Z,100.00
2022-11-21T04:39:23.493Z,100.00
2022-11-21T04:41:50.696Z,100.00
2022-11-21T04:44:20.581Z,100.00
2022-11-21T04:46:48.053Z,100.00
2022-11-21T04:49:15.116Z,100.00
2022-11-21T04:51:45.505Z,100.00
2022-11-21T04:54:12.738Z,100.00
2022-11-21T04:56:46.422Z,100.00
2022-11-21T04:59:17.073Z,100.00
2022-11-21T05:01:44.334Z,100.00
2022-11-21T05:04:11.685Z,100.00
2022-11-21T05:06:41.914Z,100.00
2022-11-21T05:09:09.251Z,100.00
2022-11-21T05:11:37.277Z,100.00
2022-11-21T05:14:07.814Z,100.00
2022-11-21T05:16:39.088Z,100.00
2022-11-21T05:19:26.428Z,100.00
2022-11-21T05:21:56.944Z,100.00
2022-11-21T05:24:36.224Z,100.00
2022-11-21T05:27:05.112Z,100.00
2022-11-21T05:29:32.782Z,100.00
2022-11-21T05:32:00.495Z,100.00
2022-11-21T05:34:28.442Z,100.00
2022-11-21T05:36:56.271Z,100.00
2022-11-21T05:39:27.295Z,100.00
2022-11-21T05:42:02.664Z,100.00
2022-11-21T05:44:31.168Z,100.00
2022-11-21T05:46:58.502Z,100.00
2022-11-21T05:49:25.761Z,100.00
2022-11-21T05:51:52.933Z,100.00
2022-11-21T05:54:20.122Z,100.00
2022-11-21T05:56:47.213Z,100.00
2022-11-21T05:59:17.223Z,100.00
2022-11-21T06:01:45.393Z,100.00
2022-11-21T06:04:12.648Z,100.00
2022-11-21T06:06:39.863Z,100.00
2022-11-21T06:09:07.432Z,100.00
2022-11-21T06:11:34.576Z,100.00
2022-11-21T06:14:01.724Z,100.00
2022-11-21T06:16:28.877Z,97.39
2022-11-21T06:18:58.732Z,100.00
2022-11-21T06:21:29.401Z,100.00
2022-11-21T06:23:58.334Z,100.00
2022-11-21T06:26:28.496Z,100.00
2022-11-21T06:29:04.404Z,100.00
2022-11-21T06:31:35.113Z,100.00
2022-11-21T06:34:07.311Z,100.00
2022-11-21T06:36:35.154Z,100.00
2022-11-21T06:39:21.768Z,100.00
2022-11-21T06:42:08.324Z,100.00
2022-11-21T06:44:54.885Z,100.00
2022-11-21T06:47:41.484Z,100.00
2022-11-21T06:50:28.035Z,100.00
2022-11-21T06:52:58.088Z,100.00
2022-11-21T06:55:28.254Z,100.00
2022-11-21T06:57:58.452Z,100.00
2022-11-21T07:00:27.302Z,100.00
2022-11-21T07:03:00.082Z,100.00
2022-11-21T07:05:30.252Z,100.00
2022-11-21T07:08:01.935Z,100.00
2022-11-21T07:10:30.598Z,100.00
2022-11-21T07:13:01.312Z,100.00
2022-11-21T07:15:28.948Z,100.00
2022-11-21T07:17:58.895Z,100.00
2022-11-21T07:20:26.040Z,100.00
2022-11-21T07:22:59.090Z,100.00
2022-11-21T07:25:26.163Z,100.00
2022-11-21T07:27:53.346Z,100.00
2022-11-21T07:30:20.462Z,100.00
2022-11-21T07:32:47.632Z,100.00
2022-11-21T07:35:17.316Z,100.00
2022-11-21T07:37:44.448Z,100.00
2022-11-21T07:40:14.661Z,100.00
2022-11-21T07:42:45.182Z,100.00
2022-11-21T07:45:15.822Z,100.00
2022-11-21T07:47:46.709Z,100.00
2022-11-21T07:50:18.813Z,100.00
2022-11-21T07:52:45.969Z,100.00
2022-11-21T07:55:16.150Z,100.00
2022-11-21T07:57:45.944Z,100.00
2022-11-21T08:00:19.173Z,100.00
2022-11-21T08:02:52.251Z,100.00
2022-11-21T08:05:25.925Z,100.00
2022-11-21T08:07:53.347Z,100.00
2022-11-21T08:10:20.971Z,100.00
2022-11-21T08:12:48.100Z,100.00
2022-11-21T08:15:17.997Z,100.00
2022-11-21T08:17:46.030Z,100.00
2022-11-21T08:20:16.513Z,100.00
2022-11-21T08:22:44.646Z,100.00
2022-11-21T08:25:20.121Z,100.00
2022-11-21T08:27:55.964Z,100.00
2022-11-21T08:30:26.401Z,100.00
2022-11-21T08:33:11.954Z,100.00
2022-11-21T08:35:41.875Z,100.00
2022-11-21T08:38:09.435Z,100.00
2022-11-21T08:40:36.659Z,100.00
2022-11-21T08:43:08.998Z,100.00
2022-11-21T08:45:41.497Z,100.00
2022-11-21T08:48:15.486Z,100.00
2022-11-21T08:50:42.631Z,100.00
2022-11-21T08:53:09.840Z,100.00
2022-11-21T08:55:37.355Z,100.00
2022-11-21T08:58:04.559Z,99.85
2022-11-21T09:00:32.102Z,100.00
2022-11-21T09:02:59.279Z,100.00
2022-11-21T09:05:29.247Z,98.39
2022-11-21T09:07:57.770Z,94.82
2022-11-21T09:10:26.495Z,100.00
2022-11-21T09:13:00.082Z,99.18
2022-11-21T09:15:27.469Z,98.00
2022-11-21T09:18:00.049Z,96.21
2022-11-21T09:20:31.293Z,100.00
2022-11-21T09:23:06.820Z,97.77
2022-11-21T09:25:35.250Z,97.51
2022-11-21T09:28:03.969Z,98.00
2022-11-21T09:30:32.203Z,100.00
2022-11-21T09:33:04.843Z,97.32
2022-11-21T09:35:32.699Z,96.08
2022-11-21T09:38:03.486Z,94.68
2022-11-21T09:40:32.008Z,97.77
2022-11-21T09:43:30.046Z,95.63
2022-11-21T09:46:10.923Z,95.59
2022-11-21T09:49:06.993Z,100.00
2022-11-21T09:51:38.789Z,97.73
2022-11-21T09:54:32.376Z,92.91
2022-11-21T09:56:59.767Z,92.38
2022-11-21T09:59:35.032Z,100.00
2022-11-21T10:02:10.412Z,95.01
2022-11-21T10:04:37.741Z,93.09
2022-11-21T10:07:15.466Z,94.84
2022-11-21T10:10:06.248Z,99.65
2022-11-21T10:13:04.757Z,91.24
2022-11-21T10:15:41.928Z,93.50
2022-11-21T10:18:37.653Z,92.48
2022-11-21T10:21:26.520Z,99.53
2022-11-21T10:24:33.516Z,91.52
2022-11-21T10:27:07.508Z,91.79
2022-11-21T10:29:43.046Z,97.09
2022-11-21T10:32:21.751Z,94.07
2022-11-21T10:34:56.142Z,89.96
2022-11-21T10:37:38.079Z,89.49
2022-11-21T10:40:14.957Z,91.47
2022-11-21T10:42:55.546Z,88.04
2022-11-21T10:45:22.895Z,89.48
2022-11-21T10:47:54.464Z,88.10
2022-11-21T10:50:50.262Z,87.67
2022-11-21T10:53:22.539Z,90.54
2022-11-21T10:56:18.497Z,91.54
2022-11-21T10:58:49.073Z,91.04
2022-11-21T11:01:34.649Z,92.16
2022-11-21T11:04:37.524Z,91.70
2022-11-21T11:07:29.698Z,89.23
2022-11-21T11:10:27.722Z,94.49
2022-11-21T11:13:01.710Z,89.13
2022-11-21T11:15:36.139Z,89.25
2022-11-21T11:18:14.327Z,88.51
2022-11-21T11:20:44.563Z,78.28
2022-11-21T11:23:20.931Z,79.61
2022-11-21T11:25:51.920Z,83.86
2022-11-21T11:28:20.115Z,91.44
2022-11-21T11:30:51.401Z,92.60
2022-11-21T11:33:32.396Z,88.35
2022-11-21T11:36:42.174Z,83.24
2022-11-21T11:39:18.028Z,84.75
2022-11-21T11:42:03.543Z,85.54
2022-11-21T11:44:47.073Z,83.31
2022-11-21T11:47:24.681Z,80.15
2022-11-21T11:49:58.363Z,85.63
2022-11-21T11:52:31.539Z,81.93
2022-11-21T11:55:06.517Z,83.26
2022-11-21T11:57:36.974Z,86.24
2022-11-21T12:00:35.147Z,87.94
2022-11-21T12:03:13.677Z,86.18
2022-11-21T12:05:54.579Z,87.61
2022-11-21T12:08:42.223Z,87.25
2022-11-21T12:11:38.914Z,91.03
2022-11-21T12:14:34.302Z,84.96
2022-11-21T12:17:09.952Z,85.85
2022-11-21T12:19:39.972Z,83.79
2022-11-21T12:22:10.836Z,85.76
2022-11-21T12:24:43.551Z,85.68
2022-11-21T12:27:26.905Z,87.69
2022-11-21T12:30:01.074Z,90.27
2022-11-21T12:33:08.820Z,86.58
2022-11-21T12:36:16.909Z,87.74
2022-11-21T12:38:57.671Z,86.42
2022-11-21T12:41:39.583Z,94.39
2022-11-21T12:44:37.101Z,88.26
2022-11-21T12:47:26.763Z,89.57
2022-11-21T12:50:21.332Z,91.94
2022-11-21T12:52:56.543Z,88.76
2022-11-21T12:55:35.925Z,90.42
2022-11-21T12:58:17.688Z,90.90
2022-11-21T13:01:03.735Z,88.14
2022-11-21T13:04:02.234Z,88.04
2022-11-21T13:06:41.070Z,88.57
2022-11-21T13:09:20.778Z,87.63
2022-11-21T13:12:05.846Z,88.38
2022-11-21T13:14:40.989Z,90.22
2022-11-21T13:17:29.093Z,91.00
2022-11-21T13:20:19.475Z,86.54
2022-11-21T13:22:51.522Z,86.03
2022-11-21T13:25:39.595Z,92.41
2022-11-21T13:28:18.919Z,88.34
2022-11-21T13:30:50.531Z,87.86
2022-11-21T13:33:39.447Z,86.97
2022-11-21T13:36:34.078Z,90.47
2022-11-21T13:39:01.402Z,86.58
2022-11-21T13:41:37.865Z,87.86
2022-11-21T13:44:33.274Z,88.46
2022-11-21T13:47:08.763Z,88.78
2022-11-21T13:49:43.177Z,88.24
2022-11-21T13:52:28.683Z,89.92
2022-11-21T13:55:01.785Z,88.75
2022-11-21T13:57:53.402Z,92.15
2022-11-21T14:00:54.689Z,90.09
2022-11-21T14:03:28.522Z,89.68
2022-11-21T14:06:03.253Z,91.89
2022-11-21T14:08:34.284Z,90.40
2022-11-21T14:11:30.171Z,88.35
2022-11-21T14:14:04.272Z,89.00
2022-11-21T14:16:52.380Z,92.26
2022-11-21T14:19:20.751Z,88.18
2022-11-21T14:21:52.023Z,88.54
2022-11-21T14:24:20.401Z,88.14
2022-11-21T14:26:51.968Z,87.16
2022-11-21T14:29:43.883Z,89.04
2022-11-21T14:32:25.290Z,87.50
2022-11-21T14:34:55.436Z,87.68
2022-11-21T14:37:23.211Z,87.52
2022-11-21T14:39:56.944Z,88.71
2022-11-21T14:42:34.758Z,87.18
2022-11-21T14:45:17.293Z,87.91
2022-11-21T14:47:52.749Z,89.34
2022-11-21T14:50:30.549Z,89.69
2022-11-21T14:53:04.754Z,90.41
2022-11-21T14:55:33.597Z,90.44
2022-11-21T14:58:06.393Z,89.69
2022-11-21T15:00:58.662Z,90.68
2022-11-21T15:03:24.648Z,90.00
2022-11-21T15:06:10.630Z,90.05
2022-11-21T15:11:48.807Z,89.59
2022-11-21T15:14:39.198Z,89.50
2022-11-21T15:17:12.766Z,89.66
2022-11-21T15:19:47.239Z,93.25
2022-11-21T15:22:29.310Z,88.49
2022-11-21T15:25:33.004Z,88.58
2022-11-21T15:28:03.156Z,91.10
2022-11-21T15:30:35.349Z,89.91
2022-11-21T15:33:08.501Z,88.95
2022-11-21T15:35:45.068Z,88.65
2022-11-21T15:38:40.457Z,90.98
2022-11-21T15:41:25.747Z,89.24
2022-11-21T15:44:00.186Z,89.21
2022-11-21T15:46:36.371Z,89.57
2022-11-21T15:49:32.385Z,92.23
2022-11-21T15:52:12.237Z,88.03
2022-11-21T15:54:42.230Z,89.01
2022-11-21T15:57:14.542Z,90.58
2022-11-21T15:59:49.697Z,91.86
2022-11-21T16:02:20.284Z,88.27
2022-11-21T16:04:50.868Z,89.91
2022-11-21T16:07:21.307Z,88.19
2022-11-21T16:09:52.441Z,91.58
2022-11-21T16:12:19.758Z,89.10
2022-11-21T16:14:53.413Z,89.29
2022-11-21T16:17:23.625Z,89.46
2022-11-21T16:19:57.701Z,91.38
2022-11-21T16:22:25.400Z,87.96
2022-11-21T16:25:02.490Z,87.95
2022-11-21T16:27:36.496Z,88.07
2022-11-21T16:30:07.696Z,89.01
2022-11-21T16:32:41.391Z,88.78
2022-11-21T16:35:17.785Z,89.88
2022-11-21T16:37:51.689Z,89.99
2022-11-21T16:40:19.786Z,90.98
2022-11-21T16:42:47.114Z,89.78
2022-11-21T16:45:18.064Z,91.41
2022-11-21T16:47:49.135Z,90.74
2022-11-21T16:50:23.399Z,91.23
2022-11-21T16:53:19.483Z,90.97
2022-11-21T16:56:09.588Z,90.31
2022-11-21T16:58:59.795Z,90.52
2022-11-21T17:01:52.242Z,90.18
2022-11-21T17:04:42.220Z,90.61
2022-11-21T17:07:16.737Z,90.61
2022-11-21T17:09:51.548Z,91.01
2022-11-21T17:12:21.543Z,90.50
2022-11-21T17:14:58.989Z,89.35
2022-11-21T17:17:31.967Z,90.14
2022-11-21T17:20:04.474Z,89.81
2022-11-21T17:22:39.004Z,90.17
2022-11-21T17:25:09.611Z,88.64
2022-11-21T17:27:37.298Z,88.71
2022-11-21T17:30:08.033Z,91.26
2022-11-21T17:32:37.881Z,88.50
2022-11-21T17:35:15.264Z,87.88
2022-11-21T17:37:45.068Z,88.51
2022-11-21T17:40:21.941Z,89.66
2022-11-21T17:42:56.503Z,87.65
2022-11-21T17:45:29.673Z,88.26
2022-11-21T17:47:56.937Z,85.59
2022-11-21T17:50:30.637Z,86.58
2022-11-21T17:52:58.799Z,86.71
2022-11-21T17:55:28.523Z,87.82
2022-11-21T17:57:59.307Z,87.58
2022-11-21T18:00:27.343Z,89.45
2022-11-21T18:03:00.140Z,87.22
2022-11-21T18:05:34.867Z,88.71
2022-11-21T18:08:06.033Z,88.44
2022-11-21T18:10:44.138Z,88.30
2022-11-21T18:13:21.433Z,88.23
2022-11-21T18:15:54.797Z,88.22
2022-11-21T18:18:29.519Z,87.84
2022-11-21T18:21:20.664Z,87.94
2022-11-21T18:24:00.772Z,86.32
2022-11-21T18:26:39.067Z,88.08
2022-11-21T18:29:35.290Z,90.15
2022-11-21T18:32:08.160Z,87.45
2022-11-21T18:34:44.861Z,87.57
2022-11-21T18:37:15.798Z,87.62
2022-11-21T18:39:49.774Z,89.48
2022-11-21T18:42:23.448Z,88.17
2022-11-21T18:44:53.658Z,88.25
2022-11-21T18:47:27.474Z,86.29
2022-11-21T18:49:57.665Z,86.43
2022-11-21T18:52:33.572Z,87.84
2022-11-21T18:55:03.794Z,88.37
2022-11-21T18:57:34.699Z,89.34
2022-11-21T19:00:06.348Z,93.06
2022-11-21T19:02:40.362Z,88.39
2022-11-21T19:05:12.375Z,87.55
2022-11-21T19:07:48.553Z,88.37
2022-11-21T19:10:41.995Z,89.12
2022-11-21T19:13:14.411Z,86.88
2022-11-21T19:15:47.545Z,88.30
2022-11-21T19:18:17.394Z,85.85
2022-11-21T19:20:53.076Z,88.90
2022-11-21T19:23:27.487Z,86.57
2022-11-21T19:26:05.396Z,86.64
2022-11-21T19:28:39.126Z,87.89
2022-11-21T19:31:11.467Z,88.69
2022-11-21T19:33:45.058Z,89.78
2022-11-21T19:36:22.873Z,91.02
2022-11-21T19:38:53.686Z,85.45
2022-11-21T19:41:26.993Z,85.65
2022-11-21T19:44:01.831Z,84.95
2022-11-21T19:46:38.470Z,84.39
2022-11-21T19:49:15.436Z,86.50
2022-11-21T19:51:51.026Z,87.28
2022-11-21T19:54:18.383Z,88.22
2022-11-21T19:56:52.758Z,87.48
2022-11-21T19:59:26.180Z,87.57
2022-11-21T20:01:53.956Z,89.10
2022-11-21T20:04:24.972Z,88.43
2022-11-21T20:07:02.319Z,88.62
2022-11-21T20:09:34.887Z,87.99
2022-11-21T20:12:05.467Z,87.38
2022-11-21T20:14:38.349Z,87.91
2022-11-21T20:17:11.671Z,88.52
2022-11-21T20:19:50.429Z,91.36
2022-11-21T20:22:21.924Z,89.45
2022-11-21T20:24:56.143Z,90.25
2022-11-21T20:27:33.182Z,89.88
2022-11-21T20:30:03.908Z,90.24
2022-11-21T20:32:32.207Z,89.46
2022-11-21T20:35:02.158Z,90.41
2022-11-21T20:37:35.710Z,88.63
2022-11-21T20:40:06.947Z,93.55
2022-11-21T20:42:34.651Z,90.59
2022-11-21T20:46:06.447Z,90.89
2022-11-21T20:47:55.733Z,90.88
2022-11-21T20:51:18.085Z,90.68
2022-11-21T20:56:23.927Z,91.43
2022-11-21T20:58:54.752Z,91.74
2022-11-21T21:01:31.153Z,92.19
2022-11-21T21:04:04.532Z,91.75
2022-11-21T21:06:35.250Z,91.89
2022-11-21T21:09:02.601Z,91.36
2022-11-21T21:11:54.394Z,91.85
2022-11-21T21:14:24.608Z,90.98
2022-11-21T21:16:52.759Z,92.16
2022-11-21T21:19:23.881Z,91.66
2022-11-21T21:21:51.667Z,92.96
2022-11-21T21:24:22.402Z,92.07
2022-11-21T21:26:55.801Z,91.76
2022-11-21T21:29:26.747Z,92.37
2022-11-21T21:31:56.864Z,93.25
2022-11-21T21:34:28.377Z,92.84
2022-11-21T21:36:58.923Z,91.96
2022-11-21T21:39:30.028Z,93.23
2022-11-21T21:42:00.195Z,96.08
2022-11-21T21:44:33.504Z,93.53
2022-11-21T21:47:03.812Z,93.88
2022-11-21T21:49:34.041Z,93.64
2022-11-21T21:52:08.319Z,93.62
2022-11-21T21:54:39.767Z,93.45
2022-11-21T21:57:13.097Z,93.92
2022-11-21T21:59:44.380Z,94.40
2022-11-21T22:02:14.776Z,94.96
2022-11-21T22:04:51.954Z,94.83
2022-11-21T22:07:22.948Z,93.82
2022-11-21T22:09:53.750Z,93.95
2022-11-21T22:12:27.855Z,93.52
2022-11-21T22:15:04.103Z,94.52
2022-11-21T22:17:37.134Z,92.95
2022-11-21T22:20:05.304Z,95.40
2022-11-21T22:22:36.182Z,93.90
2022-11-21T22:25:06.209Z,93.93
2022-11-21T22:27:36.731Z,94.87
2022-11-21T22:30:04.449Z,96.41
2022-11-21T22:32:34.917Z,94.56
2022-11-21T22:35:11.041Z,94.00
2022-11-21T22:37:41.638Z,94.64
2022-11-21T22:40:12.470Z,95.89
2022-11-21T22:42:42.689Z,95.61
2022-11-21T22:45:13.242Z,94.19
2022-11-21T22:47:47.717Z,94.68
2022-11-21T22:50:18.269Z,94.56
2022-11-21T22:52:51.552Z,95.07
2022-11-21T22:55:19.691Z,95.28
2022-11-21T22:57:47.768Z,94.89
2022-11-21T23:00:18.793Z,97.22
2022-11-21T23:02:48.526Z,95.59
2022-11-21T23:05:15.888Z,95.06
2022-11-21T23:07:49.092Z,95.01
2022-11-21T23:10:23.081Z,96.53
2022-11-21T23:12:50.419Z,96.94
2022-11-21T23:15:17.716Z,97.65
2022-11-21T23:17:48.319Z,98.01
2022-11-21T23:20:22.195Z,98.85
2022-11-21T23:22:50.297Z,96.62
2022-11-21T23:25:21.011Z,95.90
2022-11-21T23:27:51.564Z,96.33
2022-11-21T23:30:21.345Z,95.57
2022-11-21T23:32:51.190Z,95.45
2022-11-21T23:35:25.339Z,96.11
2022-11-21T23:37:56.183Z,95.97
2022-11-21T23:40:29.107Z,95.87
2022-11-21T23:43:02.162Z,94.92
2022-11-21T23:45:29.920Z,93.88
2022-11-21T23:48:03.382Z,94.12
2022-11-21T23:50:34.904Z,95.36
2022-11-21T23:53:05.746Z,95.29
2022-11-21T23:55:36.256Z,94.67
2022-11-21T23:58:11.055Z,95.70
